createdAt,value
2022-10-19T00:01:06.596Z,1.90
2022-10-19T00:03:35.412Z,2.00
2022-10-19T00:06:26.063Z,2.00
2022-10-19T00:11:21.483Z,1.90
2022-10-19T00:13:48.514Z,2.00
2022-10-19T00:16:18.453Z,1.55
2022-10-19T00:18:45.916Z,1.77
2022-10-19T00:21:16.707Z,1.90
2022-10-19T00:26:12.662Z,1.55
2022-10-19T00:28:39.878Z,1.60
2022-10-19T00:31:09.879Z,1.55
2022-10-19T00:33:37.170Z,1.90
2022-10-19T00:36:05.520Z,1.77
2022-10-19T00:38:32.687Z,1.90
2022-10-19T00:40:59.708Z,1.65
2022-10-19T00:43:30.673Z,1.45
2022-10-19T00:45:57.869Z,1.70
2022-10-19T00:48:30.104Z,1.73
2022-10-19T00:51:00.196Z,1.70
2022-10-19T00:53:30.640Z,1.77
2022-10-19T00:56:02.997Z,1.40
2022-10-19T00:58:30.619Z,1.60
2022-10-19T01:01:01.698Z,1.60
2022-10-19T01:03:29.100Z,1.63
2022-10-19T01:05:56.353Z,1.60
2022-10-19T01:08:24.097Z,1.50
2022-10-19T01:11:15.073Z,1.60
2022-10-19T01:14:04.111Z,1.75
2022-10-19T01:16:42.922Z,1.67
2022-10-19T01:19:21.979Z,1.85
2022-10-19T01:21:58.435Z,1.80
2022-10-19T01:25:11.567Z,1.85
2022-10-19T01:27:49.401Z,1.75
2022-10-19T01:30:38.061Z,1.77
2022-10-19T01:33:12.031Z,1.73
2022-10-19T01:35:55.949Z,1.77
2022-10-19T01:38:45.195Z,1.92
2022-10-19T01:41:37.610Z,1.60
2022-10-19T01:44:14.186Z,1.48
2022-10-19T01:46:50.012Z,1.40
2022-10-19T01:49:32.928Z,1.88
2022-10-19T01:52:05.000Z,1.45
2022-10-19T01:54:38.682Z,1.73
2022-10-19T01:57:08.990Z,1.50
2022-10-19T01:59:37.501Z,1.73
2022-10-19T02:02:09.246Z,1.88
2022-10-19T02:04:38.484Z,1.50
2022-10-19T02:07:08.616Z,1.65
2022-10-19T02:09:36.195Z,1.70
2022-10-19T02:12:08.866Z,1.70
2022-10-19T02:14:42.916Z,1.80
2022-10-19T02:17:14.197Z,1.50
2022-10-19T02:19:41.881Z,1.85
2022-10-19T02:22:10.073Z,1.50
2022-10-19T02:24:37.262Z,1.42
2022-10-19T02:27:05.731Z,1.40
2022-10-19T02:29:34.146Z,1.40
2022-10-19T02:32:02.406Z,1.60
2022-10-19T02:34:30.474Z,1.63
2022-10-19T02:36:58.168Z,1.90
2022-10-19T02:39:25.549Z,2.67
2022-10-19T02:42:18.049Z,2.00
2022-10-19T02:44:44.996Z,1.90
2022-10-19T02:47:33.943Z,2.67
2022-10-19T02:50:04.381Z,2.20
2022-10-19T02:52:31.564Z,2.50
2022-10-19T02:54:58.796Z,2.33
2022-10-19T02:57:26.350Z,2.38
2022-10-19T02:59:53.822Z,1.65
2022-10-19T03:02:21.590Z,2.10
2022-10-19T03:04:48.787Z,2.20
2022-10-19T03:07:18.095Z,2.30
2022-10-19T03:09:45.656Z,2.03
2022-10-19T03:12:14.162Z,2.20
2022-10-19T03:14:41.359Z,2.30
2022-10-19T03:17:09.106Z,2.20
2022-10-19T03:19:37.122Z,2.10
2022-10-19T03:22:04.779Z,2.22
2022-10-19T03:24:31.913Z,2.25
2022-10-19T03:26:58.893Z,2.50
2022-10-19T03:29:26.147Z,2.97
2022-10-19T03:31:53.222Z,2.70
2022-10-19T03:34:20.286Z,2.97
2022-10-19T03:36:47.389Z,3.17
2022-10-19T03:39:16.231Z,3.33
2022-10-19T03:41:44.171Z,3.63
2022-10-19T03:44:12.125Z,3.88
2022-10-19T03:46:39.904Z,3.78
2022-10-19T03:49:07.502Z,4.03
2022-10-19T03:51:35.396Z,4.13
2022-10-19T03:54:08.037Z,3.83
2022-10-19T03:56:36.235Z,3.65
2022-10-19T03:59:04.944Z,3.97
2022-10-19T04:01:38.078Z,4.32
2022-10-19T04:04:16.122Z,4.03
2022-10-19T04:06:45.210Z,4.60
2022-10-19T04:09:15.605Z,5.65
2022-10-19T04:11:42.721Z,5.00
2022-10-19T04:14:26.633Z,5.35
2022-10-19T04:17:01.903Z,5.63
2022-10-19T04:19:29.730Z,6.30
2022-10-19T04:21:56.852Z,5.75
2022-10-19T04:24:24.190Z,5.75
2022-10-19T04:26:53.687Z,6.10
2022-10-19T04:29:25.073Z,5.28
2022-10-19T04:31:55.194Z,5.07
2022-10-19T04:34:22.356Z,6.15
2022-10-19T04:36:49.340Z,6.50
2022-10-19T04:39:16.468Z,7.05
2022-10-19T04:41:43.530Z,6.93
2022-10-19T04:44:10.891Z,7.47
2022-10-19T04:46:38.721Z,6.25
2022-10-19T04:49:07.037Z,6.68
2022-10-19T04:51:34.876Z,6.72
2022-10-19T04:54:03.751Z,7.32
2022-10-19T04:56:32.572Z,6.65
2022-10-19T04:59:01.156Z,7.45
2022-10-19T05:01:30.895Z,6.93
2022-10-19T05:04:00.316Z,6.55
2022-10-19T05:06:28.315Z,6.75
2022-10-19T05:08:55.594Z,7.60
2022-10-19T05:11:22.667Z,8.13
2022-10-19T05:13:50.620Z,7.72
2022-10-19T05:16:20.737Z,7.78
2022-10-19T05:18:52.679Z,7.32
2022-10-19T05:21:21.960Z,7.97
2022-10-19T05:23:52.446Z,8.75
2022-10-19T05:26:22.112Z,8.93
2022-10-19T05:28:59.563Z,7.95
2022-10-19T05:31:29.159Z,9.52
2022-10-19T05:33:56.756Z,10.32
2022-10-19T05:36:34.835Z,9.35
2022-10-19T05:39:05.667Z,9.38
2022-10-19T05:44:02.373Z,8.98
2022-10-19T05:46:31.307Z,8.60
2022-10-19T05:48:59.131Z,10.32
2022-10-19T05:51:28.468Z,9.65
2022-10-19T05:53:56.544Z,10.40
2022-10-19T05:56:26.338Z,11.02
2022-10-19T05:58:53.745Z,10.02
2022-10-19T06:01:21.014Z,10.05
2022-10-19T06:03:52.418Z,9.68
2022-10-19T06:06:19.839Z,10.75
2022-10-19T06:08:47.781Z,10.50
2022-10-19T06:11:17.554Z,11.52
2022-10-19T06:13:46.633Z,10.88
2022-10-19T06:16:15.478Z,11.88
2022-10-19T06:18:43.034Z,12.40
2022-10-19T06:21:18.508Z,11.80
2022-10-19T06:23:45.806Z,12.07
2022-10-19T06:26:14.485Z,13.52
2022-10-19T06:28:43.370Z,13.55
2022-10-19T06:31:11.617Z,11.93
2022-10-19T06:33:40.498Z,12.35
2022-10-19T06:36:09.600Z,12.57
2022-10-19T06:38:37.174Z,13.70
2022-10-19T06:41:04.487Z,13.27
2022-10-19T06:43:31.566Z,13.68
2022-10-19T06:45:58.613Z,13.80
2022-10-19T06:48:25.613Z,14.13
2022-10-19T06:51:00.193Z,15.02
2022-10-19T06:53:27.396Z,14.30
2022-10-19T06:55:56.964Z,14.15
2022-10-19T06:58:25.656Z,15.07
2022-10-19T07:01:00.024Z,15.80
2022-10-19T07:03:29.419Z,15.93
2022-10-19T07:06:05.582Z,17.23
2022-10-19T07:08:34.560Z,15.93
2022-10-19T07:11:04.696Z,16.85
2022-10-19T07:13:31.806Z,17.15
2022-10-19T07:16:00.840Z,16.27
2022-10-19T07:18:27.954Z,17.85
2022-10-19T07:20:59.565Z,17.20
2022-10-19T07:23:28.419Z,18.10
2022-10-19T07:26:00.687Z,17.35
2022-10-19T07:28:29.489Z,17.50
2022-10-19T07:30:56.630Z,16.73
2022-10-19T07:33:24.062Z,16.15
2022-10-19T07:35:51.114Z,16.13
2022-10-19T07:38:18.307Z,16.83
2022-10-19T07:40:47.378Z,16.63
2022-10-19T07:43:14.497Z,17.05
2022-10-19T07:45:41.551Z,16.55
2022-10-19T07:48:08.524Z,15.38
2022-10-19T07:50:35.409Z,16.10
2022-10-19T07:53:05.359Z,15.80
2022-10-19T07:55:34.570Z,15.53
2022-10-19T07:58:02.175Z,16.83
2022-10-19T08:00:29.892Z,15.88
2022-10-19T08:03:31.189Z,17.02
2022-10-19T08:05:44.240Z,16.27
2022-10-19T08:08:11.336Z,18.20
2022-10-19T08:10:38.424Z,16.92
2022-10-19T08:13:05.461Z,18.60
2022-10-19T08:15:32.716Z,17.02
2022-10-19T08:18:00.172Z,17.52
2022-10-19T08:20:27.311Z,17.85
2022-10-19T08:22:57.993Z,17.88
2022-10-19T08:25:26.127Z,18.17
2022-10-19T08:27:53.302Z,16.25
2022-10-19T08:30:20.352Z,18.65
2022-10-19T08:32:47.445Z,18.05
2022-10-19T08:35:14.601Z,19.30
2022-10-19T08:37:45.103Z,18.52
2022-10-19T08:40:24.084Z,18.20
2022-10-19T08:43:01.052Z,17.48
2022-10-19T08:45:39.032Z,16.88
2022-10-19T08:48:23.582Z,17.60
2022-10-19T08:50:51.417Z,15.88
2022-10-19T08:53:37.857Z,12.10
2022-10-19T08:56:45.669Z,11.15
2022-10-19T08:59:34.115Z,13.32
2022-10-19T09:02:14.632Z,13.18
2022-10-19T09:04:47.923Z,14.38
2022-10-19T09:07:26.261Z,15.77
2022-10-19T09:10:14.940Z,15.90
2022-10-19T09:12:55.096Z,15.98
2022-10-19T09:15:48.366Z,16.00
2022-10-19T09:18:25.756Z,20.65
2022-10-19T09:21:02.188Z,18.77
2022-10-19T09:23:58.578Z,17.48
2022-10-19T09:26:29.609Z,16.73
2022-10-19T09:29:16.692Z,18.10
2022-10-19T09:31:44.138Z,20.02
2022-10-19T09:34:50.245Z,19.02
2022-10-19T09:37:25.760Z,17.70
2022-10-19T09:39:55.734Z,17.73
2022-10-19T09:42:23.280Z,18.13
2022-10-19T09:44:52.278Z,17.75
2022-10-19T09:47:49.026Z,16.52
2022-10-19T09:50:24.778Z,16.05
2022-10-19T09:53:05.132Z,15.98
2022-10-19T09:55:42.677Z,14.70
2022-10-19T09:58:15.753Z,14.52
2022-10-19T10:00:50.880Z,12.90
2022-10-19T10:03:43.702Z,11.10
2022-10-19T10:06:14.997Z,11.05
2022-10-19T10:08:59.058Z,9.75
2022-10-19T10:11:38.386Z,11.50
2022-10-19T10:14:28.950Z,11.52
2022-10-19T10:17:13.561Z,10.25
2022-10-19T10:20:10.689Z,9.60
2022-10-19T10:22:37.909Z,10.75
2022-10-19T10:25:18.291Z,11.10
2022-10-19T10:27:56.529Z,11.27
2022-10-19T10:30:24.013Z,11.18
2022-10-19T10:32:54.670Z,11.10
2022-10-19T10:35:47.249Z,10.90
2022-10-19T10:38:20.019Z,11.02
2022-10-19T10:41:20.406Z,11.18
2022-10-19T10:44:04.706Z,9.98
2022-10-19T10:46:50.512Z,9.15
2022-10-19T10:49:34.212Z,9.80
2022-10-19T10:52:06.526Z,8.50
2022-10-19T10:54:33.944Z,8.50
2022-10-19T10:57:11.766Z,8.70
2022-10-19T10:59:57.002Z,8.48
2022-10-19T11:02:57.100Z,9.32
2022-10-19T11:05:33.741Z,9.13
2022-10-19T11:08:15.273Z,9.60
2022-10-19T11:10:54.329Z,10.40
2022-10-19T11:13:36.359Z,9.27
2022-10-19T11:16:03.387Z,8.35
2022-10-19T11:18:30.388Z,9.00
2022-10-19T11:21:50.468Z,7.68
2022-10-19T11:24:43.862Z,8.95
2022-10-19T11:27:42.650Z,8.30
2022-10-19T11:30:12.831Z,8.05
2022-10-19T11:32:46.003Z,8.05
2022-10-19T11:35:31.423Z,8.48
2022-10-19T11:38:20.406Z,8.25
2022-10-19T11:41:27.001Z,7.88
2022-10-19T11:44:16.756Z,7.75
2022-10-19T11:46:55.753Z,8.07
2022-10-19T11:49:37.509Z,7.10
2022-10-19T11:52:22.907Z,6.85
2022-10-19T11:55:21.792Z,7.60
2022-10-19T11:58:00.722Z,7.32
2022-10-19T12:00:39.990Z,6.78
2022-10-19T12:03:14.261Z,7.13
2022-10-19T12:06:13.073Z,7.38
2022-10-19T12:08:55.266Z,7.15
2022-10-19T12:12:00.192Z,7.53
2022-10-19T12:14:33.019Z,7.63
2022-10-19T12:17:08.629Z,7.88
2022-10-19T12:19:46.966Z,7.70
2022-10-19T12:22:20.486Z,7.95
2022-10-19T12:24:48.685Z,8.45
2022-10-19T12:27:20.223Z,7.35
2022-10-19T12:29:49.833Z,7.35
2022-10-19T12:32:22.066Z,8.40
2022-10-19T12:35:03.831Z,7.60
2022-10-19T12:37:58.424Z,7.47
2022-10-19T12:40:36.844Z,7.65
2022-10-19T12:43:16.897Z,8.23
2022-10-19T12:46:03.164Z,7.93
2022-10-19T12:48:30.571Z,8.05
2022-10-19T12:51:00.811Z,6.72
2022-10-19T12:53:34.682Z,7.93
2022-10-19T12:56:26.904Z,7.25
2022-10-19T12:59:01.777Z,6.03
2022-10-19T13:01:34.715Z,6.72
2022-10-19T13:04:18.330Z,7.22
2022-10-19T13:07:08.150Z,5.63
2022-10-19T13:09:37.781Z,5.80
2022-10-19T13:12:17.656Z,6.43
2022-10-19T13:14:52.277Z,5.50
2022-10-19T13:17:37.514Z,5.85
2022-10-19T13:20:13.954Z,5.28
2022-10-19T13:23:03.639Z,5.28
2022-10-19T13:25:35.217Z,4.70
2022-10-19T13:28:09.329Z,4.57
2022-10-19T13:30:39.384Z,5.00
2022-10-19T13:33:24.925Z,4.75
2022-10-19T13:36:00.923Z,3.95
2022-10-19T13:38:55.995Z,4.38
2022-10-19T13:41:26.301Z,3.92
2022-10-19T13:44:04.470Z,5.25
2022-10-19T13:46:31.586Z,4.72
2022-10-19T13:49:02.404Z,4.63
2022-10-19T13:51:38.219Z,4.53
2022-10-19T13:54:41.056Z,4.47
2022-10-19T13:57:36.191Z,4.93
2022-10-19T14:00:18.137Z,5.35
2022-10-19T14:02:54.129Z,5.18
2022-10-19T14:05:24.000Z,5.82
2022-10-19T14:08:19.101Z,6.18
2022-10-19T14:11:01.050Z,6.22
2022-10-19T14:13:29.792Z,7.60
2022-10-19T14:16:00.328Z,6.63
2022-10-19T14:18:35.529Z,6.90
2022-10-19T14:21:10.267Z,7.18
2022-10-19T14:23:42.817Z,6.18
2022-10-19T14:26:20.713Z,6.50
2022-10-19T14:28:54.168Z,6.97
2022-10-19T14:31:31.956Z,6.95
2022-10-19T14:34:02.611Z,6.03
2022-10-19T14:36:36.340Z,6.50
2022-10-19T14:39:04.353Z,7.00
2022-10-19T14:41:36.179Z,6.68
2022-10-19T14:44:42.690Z,7.20
2022-10-19T14:47:20.858Z,6.47
2022-10-19T14:49:48.474Z,6.03
2022-10-19T14:52:44.824Z,5.65
2022-10-19T14:55:18.160Z,6.22
2022-10-19T14:57:49.869Z,6.45
2022-10-19T15:03:04.213Z,6.55
2022-10-19T15:05:35.805Z,5.75
2022-10-19T15:08:22.018Z,6.32
2022-10-19T15:10:49.797Z,5.80
2022-10-19T15:13:31.238Z,5.60
2022-10-19T15:15:58.341Z,5.80
2022-10-19T15:18:47.836Z,5.28
2022-10-19T15:21:19.039Z,5.32
2022-10-19T15:23:51.927Z,5.80
2022-10-19T15:26:29.474Z,5.65
2022-10-19T15:29:09.203Z,5.95
2022-10-19T15:31:36.546Z,5.53
2022-10-19T15:34:05.391Z,5.97
2022-10-19T15:36:33.232Z,5.38
2022-10-19T15:39:25.229Z,5.85
2022-10-19T15:41:54.382Z,5.20
2022-10-19T15:44:44.289Z,5.22
2022-10-19T15:47:20.026Z,6.38
2022-10-19T15:49:54.279Z,5.43
2022-10-19T15:52:27.209Z,5.45
2022-10-19T15:54:56.916Z,5.22
2022-10-19T15:57:26.887Z,4.30
2022-10-19T15:59:56.326Z,4.27
2022-10-19T16:02:25.224Z,4.60
2022-10-19T16:04:53.809Z,4.47
2022-10-19T16:07:30.881Z,5.05
2022-10-19T16:09:58.894Z,4.88
2022-10-19T16:12:27.511Z,5.28
2022-10-19T16:14:56.225Z,4.22
2022-10-19T16:17:23.679Z,5.07
2022-10-19T16:19:51.477Z,4.25
2022-10-19T16:22:19.198Z,4.25
2022-10-19T16:24:46.191Z,5.10
2022-10-19T16:27:16.518Z,5.35
2022-10-19T16:29:44.879Z,4.63
2022-10-19T16:32:11.884Z,4.60
2022-10-19T16:34:39.523Z,5.03
2022-10-19T16:37:07.378Z,5.55
2022-10-19T16:39:35.256Z,5.20
2022-10-19T16:42:02.338Z,4.88
2022-10-19T16:44:29.771Z,5.45
2022-10-19T16:46:59.001Z,5.35
2022-10-19T16:49:27.212Z,4.90
2022-10-19T16:51:57.266Z,5.13
2022-10-19T16:54:33.006Z,5.32
2022-10-19T16:57:00.177Z,5.65
2022-10-19T16:59:27.292Z,5.18
2022-10-19T17:01:54.721Z,4.78
2022-10-19T17:04:22.230Z,5.10
2022-10-19T17:06:49.219Z,4.80
2022-10-19T17:12:03.744Z,4.95
2022-10-19T17:14:31.617Z,5.15
2022-10-19T17:16:58.840Z,5.20
2022-10-19T17:19:26.428Z,5.57
2022-10-19T17:21:55.694Z,5.22
2022-10-19T17:24:23.159Z,5.93
2022-10-19T17:26:52.245Z,5.70
2022-10-19T17:29:21.656Z,4.43
2022-10-19T17:31:51.055Z,5.47
2022-10-19T17:34:18.610Z,5.10
2022-10-19T17:36:46.561Z,5.57
2022-10-19T17:39:19.771Z,6.25
2022-10-19T17:41:48.543Z,5.25
2022-10-19T17:44:16.415Z,5.13
2022-10-19T17:46:43.926Z,7.15
2022-10-19T17:49:12.117Z,5.00
2022-10-19T17:51:39.939Z,5.05
2022-10-19T17:54:09.735Z,4.72
2022-10-19T17:56:37.149Z,5.40
2022-10-19T17:59:07.615Z,5.10
2022-10-19T18:01:35.112Z,4.85
2022-10-19T18:04:03.751Z,5.38
2022-10-19T18:06:33.282Z,4.70
2022-10-19T18:09:01.443Z,5.47
2022-10-19T18:11:37.554Z,6.00
2022-10-19T18:14:06.306Z,5.28
2022-10-19T18:16:44.834Z,4.88
2022-10-19T18:19:14.088Z,5.15
2022-10-19T18:21:45.223Z,5.10
2022-10-19T18:24:19.317Z,5.60
2022-10-19T18:26:47.276Z,5.60
2022-10-19T18:29:32.318Z,5.15
2022-10-19T18:32:01.663Z,5.07
2022-10-19T18:34:29.003Z,6.13
2022-10-19T18:36:56.472Z,5.53
2022-10-19T18:39:23.919Z,5.93
2022-10-19T18:41:55.306Z,4.97
2022-10-19T18:44:26.388Z,5.07
2022-10-19T18:46:54.587Z,5.82
2022-10-19T18:49:21.653Z,5.95
2022-10-19T18:51:54.106Z,5.80
2022-10-19T18:54:22.780Z,5.47
2022-10-19T18:56:49.737Z,5.60
2022-10-19T18:59:16.907Z,5.85
2022-10-19T19:01:44.197Z,5.18
2022-10-19T19:04:11.266Z,6.30
2022-10-19T19:06:39.564Z,5.38
2022-10-19T19:09:09.802Z,5.80
2022-10-19T19:11:40.993Z,5.03
2022-10-19T19:14:14.716Z,4.63
2022-10-19T19:16:42.874Z,5.85
2022-10-19T19:19:12.081Z,6.68
2022-10-19T19:21:41.967Z,4.45
2022-10-19T19:24:10.627Z,4.47
2022-10-19T19:26:40.491Z,4.97
2022-10-19T19:29:08.107Z,4.50
2022-10-19T19:31:35.433Z,4.75
2022-10-19T19:34:05.869Z,4.45
2022-10-19T19:36:33.067Z,3.70
2022-10-19T19:39:00.239Z,4.57
2022-10-19T19:41:34.188Z,4.18
2022-10-19T19:44:01.463Z,5.43
2022-10-19T19:46:28.590Z,4.45
2022-10-19T19:49:04.101Z,4.57
2022-10-19T19:51:32.275Z,4.07
2022-10-19T19:53:59.916Z,4.75
2022-10-19T19:56:27.131Z,3.72
2022-10-19T19:58:59.340Z,4.07
2022-10-19T20:01:27.144Z,3.92
2022-10-19T20:03:54.261Z,3.90
2022-10-19T20:06:24.970Z,3.78
2022-10-19T20:08:54.549Z,3.63
2022-10-19T20:11:22.523Z,3.78
2022-10-19T20:13:50.097Z,3.40
2022-10-19T20:16:25.243Z,3.83
2022-10-19T20:19:07.399Z,3.42
2022-10-19T20:21:34.766Z,3.60
2022-10-19T20:24:02.027Z,3.13
2022-10-19T20:26:29.616Z,3.30
2022-10-19T20:28:57.211Z,2.75
2022-10-19T20:31:24.631Z,3.17
2022-10-19T20:33:51.797Z,3.40
2022-10-19T20:36:24.671Z,3.25
2022-10-19T20:38:54.334Z,3.25
2022-10-19T20:41:23.232Z,2.90
2022-10-19T20:43:51.105Z,3.03
2022-10-19T20:46:23.797Z,2.55
2022-10-19T20:48:51.940Z,2.90
2022-10-19T20:51:23.011Z,2.88
2022-10-19T20:53:51.833Z,4.22
2022-10-19T20:56:24.148Z,2.50
2022-10-19T20:58:59.029Z,2.20
2022-10-19T21:01:27.455Z,2.60
2022-10-19T21:03:57.687Z,2.53
2022-10-19T21:06:26.251Z,2.30
2022-10-19T21:08:53.688Z,2.75
2022-10-19T21:11:24.117Z,3.75
2022-10-19T21:13:59.985Z,2.95
2022-10-19T21:16:28.746Z,2.65
2022-10-19T21:18:56.910Z,2.55
2022-10-19T21:21:27.654Z,2.53
2022-10-19T21:26:26.095Z,2.28
2022-10-19T21:28:53.483Z,2.70
2022-10-19T21:31:22.034Z,2.50
2022-10-19T21:33:49.715Z,2.67
2022-10-19T21:36:16.846Z,2.90
2022-10-19T21:38:44.402Z,3.17
2022-10-19T21:41:15.067Z,2.45
2022-10-19T21:43:42.708Z,3.00
2022-10-19T21:46:14.581Z,3.30
2022-10-19T21:48:42.316Z,2.90
2022-10-19T21:51:35.156Z,3.00
2022-10-19T21:54:07.097Z,3.15
2022-10-19T21:56:34.624Z,3.17
2022-10-19T21:59:01.959Z,3.20
2022-10-19T22:01:30.445Z,2.88
2022-10-19T22:03:58.886Z,2.90
2022-10-19T22:06:28.321Z,3.70
2022-10-19T22:08:56.124Z,3.25
2022-10-19T22:11:24.239Z,2.63
2022-10-19T22:14:00.160Z,3.42
2022-10-19T22:16:29.042Z,3.00
2022-10-19T22:18:57.004Z,2.90
2022-10-19T22:21:26.819Z,2.80
2022-10-19T22:23:57.466Z,3.27
2022-10-19T22:26:30.820Z,2.92
2022-10-19T22:28:59.649Z,3.15
2022-10-19T22:31:28.563Z,3.50
2022-10-19T22:33:55.745Z,3.55
2022-10-19T22:36:22.906Z,3.85
2022-10-19T22:38:50.161Z,4.20
2022-10-19T22:41:17.197Z,4.22
2022-10-19T22:43:44.154Z,4.13
2022-10-19T22:46:11.211Z,3.30
2022-10-19T22:48:38.299Z,4.88
2022-10-19T22:51:05.337Z,3.75
2022-10-19T22:53:32.320Z,3.50
2022-10-19T22:55:59.417Z,3.70
2022-10-19T22:58:26.412Z,3.67
2022-10-19T23:01:07.549Z,3.10
2022-10-19T23:03:34.701Z,3.38
2022-10-19T23:06:01.994Z,4.28
2022-10-19T23:08:29.253Z,3.80
2022-10-19T23:10:56.475Z,4.32
2022-10-19T23:13:23.662Z,3.72
2022-10-19T23:15:53.633Z,5.00
2022-10-19T23:18:20.774Z,4.43
2022-10-19T23:20:58.466Z,3.80
2022-10-19T23:23:26.892Z,5.10
2022-10-19T23:26:05.120Z,4.53
2022-10-19T23:28:34.060Z,3.65
2022-10-19T23:31:10.987Z,4.72
2022-10-19T23:33:38.604Z,3.92
2022-10-19T23:36:09.884Z,4.90
2022-10-19T23:38:36.888Z,3.88
2022-10-19T23:41:04.327Z,3.97
2022-10-19T23:43:31.879Z,3.78
2022-10-19T23:45:59.109Z,7.82
2022-10-19T23:48:26.391Z,4.50
2022-10-19T23:50:58.235Z,4.30
2022-10-19T23:53:25.866Z,4.07
2022-10-19T23:55:59.092Z,4.65
2022-10-19T23:58:26.293Z,4.60
